sensor_id;sensor_type;location;lat;lon;timestamp;P1;durP1;ratioP1;P2;durP2;ratioP2
79064;SDS011;68469;51.502;7.462;2023-04-06T00:01:30;3.75;;;1.88;;
79064;SDS011;68469;51.502;7.462;2023-04-06T00:03:56;7.90;;;1.90;;
79064;SDS011;68469;51.502;7.462;2023-04-06T00:06:22;5.82;;;1.80;;
79064;SDS011;68469;51.502;7.462;2023-04-06T00:08:47;6.78;;;2.20;;
79064;SDS011;68469;51.502;7.462;2023-04-06T00:11:13;5.53;;;2.15;;
79064;SDS011;68469;51.502;7.462;2023-04-06T00:13:38;7.05;;;2.08;;
79064;SDS011;68469;51.502;7.462;2023-04-06T00:16:04;6.05;;;2.13;;
79064;SDS011;68469;51.502;7.462;2023-04-06T00:18:31;4.78;;;1.90;;
79064;SDS011;68469;51.502;7.462;2023-04-06T00:20:57;3.85;;;1.80;;
79064;SDS011;68469;51.502;7.462;2023-04-06T00:23:22;6.53;;;2.15;;
79064;SDS011;68469;51.502;7.462;2023-04-06T00:25:48;6.22;;;2.08;;
79064;SDS011;68469;51.502;7.462;2023-04-06T00:28:14;4.50;;;1.73;;
79064;SDS011;68469;51.502;7.462;2023-04-06T00:30:40;3.83;;;1.50;;
79064;SDS011;68469;51.502;7.462;2023-04-06T00:33:06;4.15;;;1.88;;
79064;SDS011;68469;51.502;7.462;2023-04-06T00:35:32;4.38;;;1.80;;
79064;SDS011;68469;51.502;7.462;2023-04-06T00:37:57;4.57;;;1.67;;
79064;SDS011;68469;51.502;7.462;2023-04-06T00:40:23;3.50;;;1.67;;
79064;SDS011;68469;51.502;7.462;2023-04-06T00:42:49;4.40;;;1.70;;
79064;SDS011;68469;51.502;7.462;2023-04-06T00:45:15;3.67;;;1.67;;
79064;SDS011;68469;51.502;7.462;2023-04-06T00:47:41;5.50;;;2.13;;
79064;SDS011;68469;51.502;7.462;2023-04-06T00:50:07;4.70;;;1.92;;
79064;SDS011;68469;51.502;7.462;2023-04-06T00:52:33;4.97;;;1.63;;
79064;SDS011;68469;51.502;7.462;2023-04-06T00:54:59;4.18;;;2.22;;
79064;SDS011;68469;51.502;7.462;2023-04-06T00:57:25;3.95;;;1.73;;
79064;SDS011;68469;51.502;7.462;2023-04-06T00:59:51;6.20;;;1.65;;
79064;SDS011;68469;51.502;7.462;2023-04-06T01:02:18;4.60;;;1.90;;
79064;SDS011;68469;51.502;7.462;2023-04-06T01:04:43;3.50;;;1.73;;
79064;SDS011;68469;51.502;7.462;2023-04-06T01:07:10;3.33;;;1.42;;
79064;SDS011;68469;51.502;7.462;2023-04-06T01:09:35;4.82;;;1.58;;
79064;SDS011;68469;51.502;7.462;2023-04-06T01:12:01;2.47;;;1.50;;
79064;SDS011;68469;51.502;7.462;2023-04-06T01:14:27;3.40;;;1.52;;
79064;SDS011;68469;51.502;7.462;2023-04-06T01:16:53;4.70;;;1.80;;
79064;SDS011;68469;51.502;7.462;2023-04-06T01:19:19;3.05;;;1.40;;
79064;SDS011;68469;51.502;7.462;2023-04-06T01:21:46;4.88;;;1.42;;
79064;SDS011;68469;51.502;7.462;2023-04-06T01:24:11;3.60;;;1.60;;
79064;SDS011;68469;51.502;7.462;2023-04-06T01:26:38;2.58;;;1.40;;
79064;SDS011;68469;51.502;7.462;2023-04-06T01:29:04;3.30;;;1.77;;
79064;SDS011;68469;51.502;7.462;2023-04-06T01:31:29;4.00;;;1.20;;
79064;SDS011;68469;51.502;7.462;2023-04-06T01:33:55;5.88;;;1.70;;
79064;SDS011;68469;51.502;7.462;2023-04-06T01:36:21;3.75;;;1.70;;
79064;SDS011;68469;51.502;7.462;2023-04-06T01:38:47;4.80;;;1.77;;
79064;SDS011;68469;51.502;7.462;2023-04-06T01:41:12;2.13;;;1.17;;
79064;SDS011;68469;51.502;7.462;2023-04-06T01:43:38;4.07;;;1.40;;
79064;SDS011;68469;51.502;7.462;2023-04-06T01:46:04;2.90;;;1.10;;
79064;SDS011;68469;51.502;7.462;2023-04-06T01:48:30;2.50;;;1.25;;
79064;SDS011;68469;51.502;7.462;2023-04-06T01:50:56;2.53;;;1.17;;
79064;SDS011;68469;51.502;7.462;2023-04-06T01:53:21;3.38;;;1.38;;
79064;SDS011;68469;51.502;7.462;2023-04-06T01:55:47;2.65;;;1.55;;
79064;SDS011;68469;51.502;7.462;2023-04-06T01:58:13;4.80;;;1.60;;
79064;SDS011;68469;51.502;7.462;2023-04-06T02:00:39;3.67;;;1.58;;
79064;SDS011;68469;51.502;7.462;2023-04-06T02:03:04;3.35;;;1.30;;
79064;SDS011;68469;51.502;7.462;2023-04-06T02:05:31;3.05;;;1.40;;
79064;SDS011;68469;51.502;7.462;2023-04-06T02:08:02;4.22;;;1.30;;
79064;SDS011;68469;51.502;7.462;2023-04-06T02:10:29;2.30;;;1.48;;
79064;SDS011;68469;51.502;7.462;2023-04-06T02:12:55;3.75;;;1.45;;
79064;SDS011;68469;51.502;7.462;2023-04-06T02:15:21;3.15;;;1.50;;
79064;SDS011;68469;51.502;7.462;2023-04-06T02:17:47;2.47;;;1.30;;
79064;SDS011;68469;51.502;7.462;2023-04-06T02:20:12;3.03;;;1.42;;
79064;SDS011;68469;51.502;7.462;2023-04-06T02:22:38;2.95;;;1.10;;
79064;SDS011;68469;51.502;7.462;2023-04-06T02:25:04;3.53;;;1.48;;
79064;SDS011;68469;51.502;7.462;2023-04-06T02:27:30;4.53;;;1.60;;
79064;SDS011;68469;51.502;7.462;2023-04-06T02:29:55;2.78;;;1.45;;
79064;SDS011;68469;51.502;7.462;2023-04-06T02:32:21;2.30;;;1.15;;
79064;SDS011;68469;51.502;7.462;2023-04-06T02:34:47;2.60;;;1.42;;
79064;SDS011;68469;51.502;7.462;2023-04-06T02:37:12;2.67;;;1.00;;
79064;SDS011;68469;51.502;7.462;2023-04-06T02:39:38;1.85;;;1.15;;
79064;SDS011;68469;51.502;7.462;2023-04-06T02:42:04;3.03;;;1.33;;
79064;SDS011;68469;51.502;7.462;2023-04-06T02:44:30;1.70;;;1.20;;
79064;SDS011;68469;51.502;7.462;2023-04-06T02:46:56;2.55;;;1.15;;
79064;SDS011;68469;51.502;7.462;2023-04-06T02:49:21;2.90;;;1.13;;
79064;SDS011;68469;51.502;7.462;2023-04-06T02:51:47;2.30;;;1.00;;
79064;SDS011;68469;51.502;7.462;2023-04-06T02:54:13;4.25;;;1.40;;
79064;SDS011;68469;51.502;7.462;2023-04-06T02:56:38;3.53;;;1.02;;
79064;SDS011;68469;51.502;7.462;2023-04-06T02:59:04;1.60;;;1.00;;
79064;SDS011;68469;51.502;7.462;2023-04-06T03:01:30;2.80;;;1.33;;
79064;SDS011;68469;51.502;7.462;2023-04-06T03:03:55;3.65;;;1.25;;
79064;SDS011;68469;51.502;7.462;2023-04-06T03:06:21;2.90;;;1.10;;
79064;SDS011;68469;51.502;7.462;2023-04-06T03:08:47;2.15;;;1.20;;
79064;SDS011;68469;51.502;7.462;2023-04-06T03:11:12;2.00;;;1.13;;
79064;SDS011;68469;51.502;7.462;2023-04-06T03:13:38;2.13;;;1.00;;
79064;SDS011;68469;51.502;7.462;2023-04-06T03:16:04;3.42;;;1.00;;
79064;SDS011;68469;51.502;7.462;2023-04-06T03:18:30;3.53;;;1.30;;
79064;SDS011;68469;51.502;7.462;2023-04-06T03:20:56;3.45;;;1.23;;
79064;SDS011;68469;51.502;7.462;2023-04-06T03:23:22;3.17;;;1.10;;
79064;SDS011;68469;51.502;7.462;2023-04-06T03:25:47;2.65;;;1.20;;
79064;SDS011;68469;51.502;7.462;2023-04-06T03:28:13;3.88;;;1.27;;
79064;SDS011;68469;51.502;7.462;2023-04-06T03:30:39;1.90;;;1.00;;
79064;SDS011;68469;51.502;7.462;2023-04-06T03:33:05;2.35;;;0.90;;
79064;SDS011;68469;51.502;7.462;2023-04-06T03:35:30;5.75;;;1.20;;
79064;SDS011;68469;51.502;7.462;2023-04-06T03:37:56;2.95;;;1.17;;
79064;SDS011;68469;51.502;7.462;2023-04-06T03:40:22;2.35;;;1.08;;
79064;SDS011;68469;51.502;7.462;2023-04-06T03:42:48;2.95;;;1.45;;
79064;SDS011;68469;51.502;7.462;2023-04-06T03:45:13;2.47;;;1.02;;
79064;SDS011;68469;51.502;7.462;2023-04-06T03:47:39;2.55;;;0.88;;
79064;SDS011;68469;51.502;7.462;2023-04-06T03:50:05;1.58;;;0.88;;
79064;SDS011;68469;51.502;7.462;2023-04-06T03:52:31;2.22;;;0.98;;
79064;SDS011;68469;51.502;7.462;2023-04-06T03:54:56;3.08;;;1.05;;
79064;SDS011;68469;51.502;7.462;2023-04-06T03:57:22;2.28;;;1.05;;
79064;SDS011;68469;51.502;7.462;2023-04-06T03:59:48;2.45;;;1.20;;
79064;SDS011;68469;51.502;7.462;2023-04-06T04:02:13;3.20;;;1.10;;
79064;SDS011;68469;51.502;7.462;2023-04-06T04:04:39;1.65;;;0.95;;
79064;SDS011;68469;51.502;7.462;2023-04-06T04:07:05;2.13;;;0.95;;
79064;SDS011;68469;51.502;7.462;2023-04-06T04:09:30;2.00;;;1.00;;
79064;SDS011;68469;51.502;7.462;2023-04-06T04:11:56;1.13;;;0.90;;
79064;SDS011;68469;51.502;7.462;2023-04-06T04:14:22;2.28;;;1.10;;
79064;SDS011;68469;51.502;7.462;2023-04-06T04:16:47;1.75;;;1.10;;
79064;SDS011;68469;51.502;7.462;2023-04-06T04:19:13;1.77;;;0.95;;
79064;SDS011;68469;51.502;7.462;2023-04-06T04:21:45;2.08;;;1.08;;
79064;SDS011;68469;51.502;7.462;2023-04-06T04:24:12;1.38;;;0.80;;
79064;SDS011;68469;51.502;7.462;2023-04-06T04:26:38;3.28;;;1.20;;
79064;SDS011;68469;51.502;7.462;2023-04-06T04:29:04;2.38;;;1.15;;
79064;SDS011;68469;51.502;7.462;2023-04-06T04:31:30;2.22;;;0.90;;
79064;SDS011;68469;51.502;7.462;2023-04-06T04:33:56;2.50;;;1.17;;
79064;SDS011;68469;51.502;7.462;2023-04-06T04:36:23;1.75;;;0.90;;
79064;SDS011;68469;51.502;7.462;2023-04-06T04:38:50;3.13;;;1.27;;
79064;SDS011;68469;51.502;7.462;2023-04-06T04:41:16;1.10;;;0.70;;
79064;SDS011;68469;51.502;7.462;2023-04-06T04:43:42;2.13;;;1.00;;
79064;SDS011;68469;51.502;7.462;2023-04-06T04:46:07;1.50;;;0.88;;
79064;SDS011;68469;51.502;7.462;2023-04-06T04:48:33;2.05;;;0.88;;
79064;SDS011;68469;51.502;7.462;2023-04-06T04:50:58;4.03;;;1.15;;
79064;SDS011;68469;51.502;7.462;2023-04-06T04:53:24;2.75;;;0.90;;
79064;SDS011;68469;51.502;7.462;2023-04-06T04:55:50;2.55;;;1.20;;
79064;SDS011;68469;51.502;7.462;2023-04-06T04:58:16;1.55;;;0.80;;
79064;SDS011;68469;51.502;7.462;2023-04-06T05:00:42;2.17;;;0.73;;
79064;SDS011;68469;51.502;7.462;2023-04-06T05:03:08;1.58;;;0.80;;
79064;SDS011;68469;51.502;7.462;2023-04-06T05:05:38;1.55;;;0.90;;
79064;SDS011;68469;51.502;7.462;2023-04-06T05:08:04;2.88;;;1.25;;
79064;SDS011;68469;51.502;7.462;2023-04-06T05:10:30;2.90;;;1.00;;
79064;SDS011;68469;51.502;7.462;2023-04-06T05:12:55;1.13;;;0.88;;
79064;SDS011;68469;51.502;7.462;2023-04-06T05:15:21;1.90;;;1.10;;
79064;SDS011;68469;51.502;7.462;2023-04-06T05:17:47;1.80;;;0.90;;
79064;SDS011;68469;51.502;7.462;2023-04-06T05:20:13;1.55;;;0.70;;
79064;SDS011;68469;51.502;7.462;2023-04-06T05:22:38;2.33;;;0.85;;
79064;SDS011;68469;51.502;7.462;2023-04-06T05:25:04;1.60;;;0.90;;
79064;SDS011;68469;51.502;7.462;2023-04-06T05:27:30;1.98;;;1.10;;
79064;SDS011;68469;51.502;7.462;2023-04-06T05:29:56;1.67;;;0.90;;
79064;SDS011;68469;51.502;7.462;2023-04-06T05:32:21;1.58;;;0.80;;
79064;SDS011;68469;51.502;7.462;2023-04-06T05:34:49;1.83;;;1.05;;
79064;SDS011;68469;51.502;7.462;2023-04-06T05:37:15;2.40;;;1.30;;
79064;SDS011;68469;51.502;7.462;2023-04-06T05:39:41;1.77;;;1.00;;
79064;SDS011;68469;51.502;7.462;2023-04-06T05:42:07;3.42;;;1.20;;
79064;SDS011;68469;51.502;7.462;2023-04-06T05:44:32;2.20;;;1.13;;
79064;SDS011;68469;51.502;7.462;2023-04-06T05:46:58;2.55;;;1.20;;
79064;SDS011;68469;51.502;7.462;2023-04-06T05:49:24;3.25;;;1.25;;
79064;SDS011;68469;51.502;7.462;2023-04-06T05:51:51;2.92;;;1.40;;
79064;SDS011;68469;51.502;7.462;2023-04-06T05:54:16;6.00;;;1.58;;
79064;SDS011;68469;51.502;7.462;2023-04-06T05:56:42;14.00;;;2.15;;
79064;SDS011;68469;51.502;7.462;2023-04-06T05:59:07;5.03;;;1.40;;
79064;SDS011;68469;51.502;7.462;2023-04-06T06:01:33;8.48;;;1.60;;
79064;SDS011;68469;51.502;7.462;2023-04-06T06:04:00;6.07;;;1.77;;
79064;SDS011;68469;51.502;7.462;2023-04-06T06:06:27;17.00;;;1.83;;
79064;SDS011;68469;51.502;7.462;2023-04-06T06:08:53;19.83;;;3.22;;
79064;SDS011;68469;51.502;7.462;2023-04-06T06:11:18;51.95;;;8.55;;
79064;SDS011;68469;51.502;7.462;2023-04-06T06:13:44;65.00;;;8.00;;
79064;SDS011;68469;51.502;7.462;2023-04-06T06:16:10;37.90;;;5.47;;
79064;SDS011;68469;51.502;7.462;2023-04-06T06:18:35;31.00;;;6.07;;
79064;SDS011;68469;51.502;7.462;2023-04-06T06:21:01;24.45;;;4.55;;
79064;SDS011;68469;51.502;7.462;2023-04-06T06:23:27;19.35;;;4.30;;
79064;SDS011;68469;51.502;7.462;2023-04-06T06:25:53;22.10;;;4.22;;
79064;SDS011;68469;51.502;7.462;2023-04-06T06:28:19;24.42;;;4.15;;
79064;SDS011;68469;51.502;7.462;2023-04-06T06:30:44;13.45;;;3.67;;
79064;SDS011;68469;51.502;7.462;2023-04-06T06:33:10;16.98;;;3.67;;
79064;SDS011;68469;51.502;7.462;2023-04-06T06:35:36;16.23;;;4.45;;
79064;SDS011;68469;51.502;7.462;2023-04-06T06:38:01;11.43;;;3.58;;
79064;SDS011;68469;51.502;7.462;2023-04-06T06:40:27;19.38;;;4.35;;
79064;SDS011;68469;51.502;7.462;2023-04-06T06:42:53;15.88;;;3.97;;
79064;SDS011;68469;51.502;7.462;2023-04-06T06:45:19;28.52;;;3.70;;
79064;SDS011;68469;51.502;7.462;2023-04-06T06:47:45;14.15;;;3.28;;
79064;SDS011;68469;51.502;7.462;2023-04-06T06:50:11;11.98;;;3.42;;
79064;SDS011;68469;51.502;7.462;2023-04-06T06:52:37;9.15;;;2.83;;
79064;SDS011;68469;51.502;7.462;2023-04-06T06:55:02;15.25;;;3.05;;
79064;SDS011;68469;51.502;7.462;2023-04-06T06:57:28;17.65;;;4.07;;
79064;SDS011;68469;51.502;7.462;2023-04-06T06:59:54;12.10;;;2.75;;
79064;SDS011;68469;51.502;7.462;2023-04-06T07:02:19;11.02;;;2.72;;
79064;SDS011;68469;51.502;7.462;2023-04-06T07:04:48;16.48;;;3.65;;
79064;SDS011;68469;51.502;7.462;2023-04-06T07:07:14;9.95;;;3.20;;
79064;SDS011;68469;51.502;7.462;2023-04-06T07:09:40;11.98;;;3.25;;
79064;SDS011;68469;51.502;7.462;2023-04-06T07:12:05;13.13;;;3.88;;
79064;SDS011;68469;51.502;7.462;2023-04-06T07:14:31;17.25;;;3.40;;
79064;SDS011;68469;51.502;7.462;2023-04-06T07:16:57;19.77;;;3.33;;
79064;SDS011;68469;51.502;7.462;2023-04-06T07:19:22;21.63;;;3.30;;
79064;SDS011;68469;51.502;7.462;2023-04-06T07:21:48;13.90;;;2.63;;
79064;SDS011;68469;51.502;7.462;2023-04-06T07:24:14;15.48;;;2.92;;
79064;SDS011;68469;51.502;7.462;2023-04-06T07:26:40;20.83;;;3.00;;
79064;SDS011;68469;51.502;7.462;2023-04-06T07:29:07;14.15;;;3.83;;
79064;SDS011;68469;51.502;7.462;2023-04-06T07:31:33;8.88;;;3.05;;
79064;SDS011;68469;51.502;7.462;2023-04-06T07:34:00;21.73;;;3.67;;
79064;SDS011;68469;51.502;7.462;2023-04-06T07:36:26;13.35;;;4.10;;
79064;SDS011;68469;51.502;7.462;2023-04-06T07:38:51;14.23;;;3.20;;
79064;SDS011;68469;51.502;7.462;2023-04-06T07:41:17;13.65;;;3.25;;
79064;SDS011;68469;51.502;7.462;2023-04-06T07:43:43;10.35;;;2.65;;
79064;SDS011;68469;51.502;7.462;2023-04-06T07:46:08;12.52;;;3.25;;
79064;SDS011;68469;51.502;7.462;2023-04-06T07:48:34;16.55;;;3.20;;
79064;SDS011;68469;51.502;7.462;2023-04-06T07:51:02;21.33;;;3.10;;
79064;SDS011;68469;51.502;7.462;2023-04-06T07:53:29;11.88;;;2.78;;
79064;SDS011;68469;51.502;7.462;2023-04-06T07:55:55;8.45;;;2.90;;
79064;SDS011;68469;51.502;7.462;2023-04-06T07:58:21;8.18;;;2.60;;
79064;SDS011;68469;51.502;7.462;2023-04-06T08:00:47;12.35;;;3.05;;
79064;SDS011;68469;51.502;7.462;2023-04-06T08:03:12;10.93;;;2.67;;
79064;SDS011;68469;51.502;7.462;2023-04-06T08:05:38;11.98;;;2.90;;
79064;SDS011;68469;51.502;7.462;2023-04-06T08:08:04;10.57;;;2.58;;
79064;SDS011;68469;51.502;7.462;2023-04-06T08:10:29;10.98;;;2.53;;
79064;SDS011;68469;51.502;7.462;2023-04-06T08:12:55;13.35;;;2.55;;
79064;SDS011;68469;51.502;7.462;2023-04-06T08:15:21;9.45;;;2.88;;
79064;SDS011;68469;51.502;7.462;2023-04-06T08:17:46;10.32;;;2.45;;
79064;SDS011;68469;51.502;7.462;2023-04-06T08:20:12;9.13;;;2.72;;
79064;SDS011;68469;51.502;7.462;2023-04-06T08:22:38;10.93;;;2.65;;
79064;SDS011;68469;51.502;7.462;2023-04-06T08:25:03;13.98;;;2.90;;
79064;SDS011;68469;51.502;7.462;2023-04-06T08:27:29;6.70;;;2.45;;
79064;SDS011;68469;51.502;7.462;2023-04-06T08:29:55;6.28;;;2.15;;
79064;SDS011;68469;51.502;7.462;2023-04-06T08:32:21;8.23;;;2.45;;
79064;SDS011;68469;51.502;7.462;2023-04-06T08:34:46;5.63;;;2.05;;
79064;SDS011;68469;51.502;7.462;2023-04-06T08:37:12;6.60;;;1.83;;
79064;SDS011;68469;51.502;7.462;2023-04-06T08:39:37;8.57;;;2.53;;
79064;SDS011;68469;51.502;7.462;2023-04-06T08:42:03;11.48;;;2.05;;
79064;SDS011;68469;51.502;7.462;2023-04-06T08:44:29;9.15;;;2.83;;
79064;SDS011;68469;51.502;7.462;2023-04-06T08:46:56;4.93;;;2.33;;
79064;SDS011;68469;51.502;7.462;2023-04-06T08:49:24;7.82;;;2.45;;
79064;SDS011;68469;51.502;7.462;2023-04-06T08:51:50;5.15;;;1.90;;
79064;SDS011;68469;51.502;7.462;2023-04-06T08:54:16;6.15;;;2.10;;
79064;SDS011;68469;51.502;7.462;2023-04-06T08:56:41;6.72;;;2.00;;
79064;SDS011;68469;51.502;7.462;2023-04-06T08:59:08;7.85;;;2.05;;
79064;SDS011;68469;51.502;7.462;2023-04-06T09:01:38;6.95;;;1.85;;
79064;SDS011;68469;51.502;7.462;2023-04-06T09:04:06;9.35;;;1.83;;
79064;SDS011;68469;51.502;7.462;2023-04-06T09:06:35;7.47;;;2.05;;
79064;SDS011;68469;51.502;7.462;2023-04-06T09:09:02;5.72;;;2.00;;
79064;SDS011;68469;51.502;7.462;2023-04-06T09:11:28;6.85;;;1.90;;
79064;SDS011;68469;51.502;7.462;2023-04-06T09:13:54;4.80;;;1.85;;
79064;SDS011;68469;51.502;7.462;2023-04-06T09:16:21;3.28;;;2.25;;
79064;SDS011;68469;51.502;7.462;2023-04-06T09:18:47;4.75;;;2.13;;
79064;SDS011;68469;51.502;7.462;2023-04-06T09:21:16;5.78;;;1.60;;
79064;SDS011;68469;51.502;7.462;2023-04-06T09:23:42;4.85;;;1.80;;
79064;SDS011;68469;51.502;7.462;2023-04-06T09:28:47;6.20;;;2.17;;
79064;SDS011;68469;51.502;7.462;2023-04-06T09:31:14;7.43;;;2.25;;
79064;SDS011;68469;51.502;7.462;2023-04-06T09:33:41;7.47;;;2.10;;
79064;SDS011;68469;51.502;7.462;2023-04-06T09:36:08;4.28;;;2.10;;
79064;SDS011;68469;51.502;7.462;2023-04-06T09:38:38;8.38;;;2.05;;
79064;SDS011;68469;51.502;7.462;2023-04-06T09:41:26;4.97;;;2.00;;
79064;SDS011;68469;51.502;7.462;2023-04-06T09:46:32;9.73;;;1.83;;
79064;SDS011;68469;51.502;7.462;2023-04-06T09:49:06;5.60;;;1.77;;
79064;SDS011;68469;51.502;7.462;2023-04-06T09:51:36;6.90;;;2.17;;
79064;SDS011;68469;51.502;7.462;2023-04-06T09:54:11;5.82;;;2.08;;
79064;SDS011;68469;51.502;7.462;2023-04-06T09:59:17;7.63;;;1.50;;
79064;SDS011;68469;51.502;7.462;2023-04-06T10:01:50;5.05;;;2.13;;
79064;SDS011;68469;51.502;7.462;2023-04-06T10:06:42;4.97;;;2.15;;
79064;SDS011;68469;51.502;7.462;2023-04-06T10:09:09;4.93;;;1.95;;
79064;SDS011;68469;51.502;7.462;2023-04-06T10:11:36;6.18;;;2.03;;
79064;SDS011;68469;51.502;7.462;2023-04-06T10:14:02;4.68;;;1.50;;
79064;SDS011;68469;51.502;7.462;2023-04-06T10:16:27;5.75;;;2.03;;
79064;SDS011;68469;51.502;7.462;2023-04-06T10:18:56;7.57;;;1.63;;
79064;SDS011;68469;51.502;7.462;2023-04-06T10:21:30;3.58;;;1.67;;
79064;SDS011;68469;51.502;7.462;2023-04-06T10:24:01;4.10;;;1.85;;
79064;SDS011;68469;51.502;7.462;2023-04-06T10:26:27;5.05;;;1.75;;
79064;SDS011;68469;51.502;7.462;2023-04-06T10:28:54;3.65;;;1.80;;
79064;SDS011;68469;51.502;7.462;2023-04-06T10:33:56;5.43;;;2.38;;
79064;SDS011;68469;51.502;7.462;2023-04-06T10:36:26;5.63;;;1.55;;
79064;SDS011;68469;51.502;7.462;2023-04-06T10:38:54;5.80;;;1.83;;
79064;SDS011;68469;51.502;7.462;2023-04-06T10:41:37;4.07;;;1.42;;
79064;SDS011;68469;51.502;7.462;2023-04-06T10:44:07;5.90;;;1.63;;
79064;SDS011;68469;51.502;7.462;2023-04-06T10:46:33;3.80;;;1.65;;
79064;SDS011;68469;51.502;7.462;2023-04-06T10:49:11;4.05;;;1.58;;
79064;SDS011;68469;51.502;7.462;2023-04-06T10:51:37;4.47;;;1.98;;
79064;SDS011;68469;51.502;7.462;2023-04-06T10:54:03;4.15;;;1.77;;
79064;SDS011;68469;51.502;7.462;2023-04-06T10:56:31;4.05;;;1.70;;
79064;SDS011;68469;51.502;7.462;2023-04-06T10:59:01;4.03;;;1.25;;
79064;SDS011;68469;51.502;7.462;2023-04-06T11:01:27;4.03;;;1.70;;
79064;SDS011;68469;51.502;7.462;2023-04-06T11:03:53;6.22;;;2.05;;
79064;SDS011;68469;51.502;7.462;2023-04-06T11:06:23;3.75;;;1.60;;
79064;SDS011;68469;51.502;7.462;2023-04-06T11:08:50;4.35;;;1.73;;
79064;SDS011;68469;51.502;7.462;2023-04-06T11:11:17;5.75;;;1.50;;
79064;SDS011;68469;51.502;7.462;2023-04-06T11:16:16;4.32;;;1.70;;
79064;SDS011;68469;51.502;7.462;2023-04-06T11:19:02;2.97;;;1.55;;
79064;SDS011;68469;51.502;7.462;2023-04-06T11:24:10;2.47;;;1.27;;
79064;SDS011;68469;51.502;7.462;2023-04-06T11:29:17;4.70;;;1.52;;
79064;SDS011;68469;51.502;7.462;2023-04-06T11:31:48;3.03;;;1.52;;
79064;SDS011;68469;51.502;7.462;2023-04-06T11:34:18;2.15;;;1.42;;
79064;SDS011;68469;51.502;7.462;2023-04-06T11:36:53;2.95;;;1.27;;
79064;SDS011;68469;51.502;7.462;2023-04-06T11:39:22;5.50;;;1.70;;
79064;SDS011;68469;51.502;7.462;2023-04-06T11:41:50;2.22;;;1.30;;
79064;SDS011;68469;51.502;7.462;2023-04-06T11:44:28;3.80;;;1.63;;
79064;SDS011;68469;51.502;7.462;2023-04-06T11:47:01;3.33;;;1.70;;
79064;SDS011;68469;51.502;7.462;2023-04-06T11:49:32;2.28;;;1.40;;
79064;SDS011;68469;51.502;7.462;2023-04-06T11:52:00;3.78;;;1.25;;
79064;SDS011;68469;51.502;7.462;2023-04-06T11:57:01;3.90;;;1.40;;
79064;SDS011;68469;51.502;7.462;2023-04-06T11:59:27;3.42;;;1.30;;
79064;SDS011;68469;51.502;7.462;2023-04-06T12:01:53;3.47;;;1.70;;
79064;SDS011;68469;51.502;7.462;2023-04-06T12:04:19;3.72;;;1.60;;
79064;SDS011;68469;51.502;7.462;2023-04-06T12:06:45;1.73;;;1.27;;
79064;SDS011;68469;51.502;7.462;2023-04-06T12:09:11;3.58;;;1.48;;
79064;SDS011;68469;51.502;7.462;2023-04-06T12:11:37;3.20;;;1.27;;
79064;SDS011;68469;51.502;7.462;2023-04-06T12:14:04;2.72;;;1.23;;
79064;SDS011;68469;51.502;7.462;2023-04-06T12:16:33;2.20;;;1.38;;
79064;SDS011;68469;51.502;7.462;2023-04-06T12:18:59;2.17;;;1.15;;
79064;SDS011;68469;51.502;7.462;2023-04-06T12:21:32;2.47;;;1.60;;
79064;SDS011;68469;51.502;7.462;2023-04-06T12:24:02;1.83;;;1.20;;
79064;SDS011;68469;51.502;7.462;2023-04-06T12:26:29;4.18;;;1.38;;
79064;SDS011;68469;51.502;7.462;2023-04-06T12:28:55;4.80;;;1.73;;
79064;SDS011;68469;51.502;7.462;2023-04-06T12:31:21;3.20;;;1.42;;
79064;SDS011;68469;51.502;7.462;2023-04-06T12:33:48;2.10;;;1.15;;
79064;SDS011;68469;51.502;7.462;2023-04-06T12:36:15;2.10;;;1.05;;
79064;SDS011;68469;51.502;7.462;2023-04-06T12:38:45;2.13;;;1.10;;
79064;SDS011;68469;51.502;7.462;2023-04-06T12:41:12;3.63;;;1.35;;
79064;SDS011;68469;51.502;7.462;2023-04-06T12:43:39;2.95;;;1.30;;
79064;SDS011;68469;51.502;7.462;2023-04-06T12:46:06;3.95;;;1.52;;
79064;SDS011;68469;51.502;7.462;2023-04-06T12:48:31;2.10;;;0.98;;
79064;SDS011;68469;51.502;7.462;2023-04-06T12:50:57;2.33;;;1.30;;
79064;SDS011;68469;51.502;7.462;2023-04-06T12:53:24;3.03;;;1.73;;
79064;SDS011;68469;51.502;7.462;2023-04-06T12:55:50;3.25;;;1.40;;
79064;SDS011;68469;51.502;7.462;2023-04-06T12:58:16;1.63;;;1.10;;
79064;SDS011;68469;51.502;7.462;2023-04-06T13:00:42;3.15;;;1.20;;
79064;SDS011;68469;51.502;7.462;2023-04-06T13:03:08;1.52;;;0.90;;
79064;SDS011;68469;51.502;7.462;2023-04-06T13:05:34;2.50;;;1.30;;
79064;SDS011;68469;51.502;7.462;2023-04-06T13:07:59;3.35;;;1.58;;
79064;SDS011;68469;51.502;7.462;2023-04-06T13:10:25;2.38;;;1.02;;
79064;SDS011;68469;51.502;7.462;2023-04-06T13:12:51;3.30;;;1.33;;
79064;SDS011;68469;51.502;7.462;2023-04-06T13:15:17;2.42;;;1.50;;
79064;SDS011;68469;51.502;7.462;2023-04-06T13:17:43;2.63;;;1.05;;
79064;SDS011;68469;51.502;7.462;2023-04-06T13:20:08;2.75;;;1.27;;
79064;SDS011;68469;51.502;7.462;2023-04-06T13:22:34;1.90;;;1.20;;
79064;SDS011;68469;51.502;7.462;2023-04-06T13:25:00;3.05;;;1.33;;
79064;SDS011;68469;51.502;7.462;2023-04-06T13:27:26;3.22;;;1.30;;
79064;SDS011;68469;51.502;7.462;2023-04-06T13:29:52;2.35;;;1.05;;
79064;SDS011;68469;51.502;7.462;2023-04-06T13:32:18;2.85;;;1.50;;
79064;SDS011;68469;51.502;7.462;2023-04-06T13:34:44;2.70;;;1.23;;
79064;SDS011;68469;51.502;7.462;2023-04-06T13:37:13;2.65;;;1.10;;
79064;SDS011;68469;51.502;7.462;2023-04-06T13:39:40;2.58;;;1.20;;
79064;SDS011;68469;51.502;7.462;2023-04-06T13:42:05;3.58;;;1.10;;
79064;SDS011;68469;51.502;7.462;2023-04-06T13:44:31;2.80;;;1.23;;
79064;SDS011;68469;51.502;7.462;2023-04-06T13:46:57;3.05;;;1.35;;
79064;SDS011;68469;51.502;7.462;2023-04-06T13:49:23;1.52;;;0.93;;
79064;SDS011;68469;51.502;7.462;2023-04-06T13:51:49;1.80;;;1.00;;
79064;SDS011;68469;51.502;7.462;2023-04-06T13:54:15;2.15;;;1.10;;
79064;SDS011;68469;51.502;7.462;2023-04-06T13:56:40;3.20;;;1.20;;
79064;SDS011;68469;51.502;7.462;2023-04-06T13:59:06;2.85;;;1.00;;
79064;SDS011;68469;51.502;7.462;2023-04-06T14:01:32;3.03;;;1.25;;
79064;SDS011;68469;51.502;7.462;2023-04-06T14:03:57;2.42;;;1.10;;
79064;SDS011;68469;51.502;7.462;2023-04-06T14:06:23;2.42;;;1.23;;
79064;SDS011;68469;51.502;7.462;2023-04-06T14:08:48;2.03;;;1.40;;
79064;SDS011;68469;51.502;7.462;2023-04-06T14:11:14;2.72;;;1.20;;
79064;SDS011;68469;51.502;7.462;2023-04-06T14:13:40;3.10;;;1.15;;
79064;SDS011;68469;51.502;7.462;2023-04-06T14:16:06;2.17;;;1.00;;
79064;SDS011;68469;51.502;7.462;2023-04-06T14:18:32;3.55;;;1.85;;
79064;SDS011;68469;51.502;7.462;2023-04-06T14:20:59;3.00;;;1.10;;
79064;SDS011;68469;51.502;7.462;2023-04-06T14:23:25;1.80;;;0.88;;
79064;SDS011;68469;51.502;7.462;2023-04-06T14:26:03;2.13;;;1.13;;
79064;SDS011;68469;51.502;7.462;2023-04-06T14:28:30;1.60;;;0.98;;
79064;SDS011;68469;51.502;7.462;2023-04-06T14:30:59;2.03;;;1.15;;
79064;SDS011;68469;51.502;7.462;2023-04-06T14:33:29;2.55;;;0.95;;
79064;SDS011;68469;51.502;7.462;2023-04-06T14:35:55;2.08;;;1.13;;
79064;SDS011;68469;51.502;7.462;2023-04-06T14:38:21;2.33;;;1.15;;
79064;SDS011;68469;51.502;7.462;2023-04-06T14:40:47;2.13;;;1.10;;
79064;SDS011;68469;51.502;7.462;2023-04-06T14:43:13;2.00;;;1.10;;
79064;SDS011;68469;51.502;7.462;2023-04-06T14:45:38;2.25;;;1.05;;
79064;SDS011;68469;51.502;7.462;2023-04-06T14:48:04;3.35;;;1.30;;
79064;SDS011;68469;51.502;7.462;2023-04-06T14:50:37;1.50;;;0.87;;
79064;SDS011;68469;51.502;7.462;2023-04-06T14:53:03;2.40;;;1.20;;
79064;SDS011;68469;51.502;7.462;2023-04-06T14:55:29;1.55;;;0.80;;
79064;SDS011;68469;51.502;7.462;2023-04-06T14:57:55;1.80;;;0.90;;
79064;SDS011;68469;51.502;7.462;2023-04-06T15:00:21;1.55;;;0.95;;
79064;SDS011;68469;51.502;7.462;2023-04-06T15:02:46;1.48;;;1.00;;
79064;SDS011;68469;51.502;7.462;2023-04-06T15:05:12;1.58;;;1.02;;